Pagina principale
METAR-TAF:

METAR-TAF

Aeroporti :

Aeroporto di Metz Nancy-Lorena

Metz-Nancy-Lorraine, Francia

latitudine: 48-59N, longitudine: 006-15E, altezza: 264 m

Osservazione

Il bollettino è stato emesso 23 minuti fa, alle 22:30 UTC
Vento 6 kt da est
Temperature 15°C
Umidità 77%
Pressione 1022 hPa
Visibilità 10 km o più
nessuna nube inferiore a 1500 m e nessun cumulonembo

METAR: LFJL 162230Z AUTO 08006KT CAVOK 15/11 Q1022 NOSIG

Ora: 00:53 (22:53 UTC)

Previsione

Il bollettino è stato emesso 5 ore e 53 minuti fa, alle 17:00 UTC
Previsione valida dal 16 alle 18 UTC al 17 alle 18 UTC
Vento 3 kt da direzioni variabili
Visibilità 10 km o più
nessuna nube inferiore a 1500 m e nessun cumulonembo
Evoluzione graduale
dal 17 alle 07 UTC al 17 alle 10 UTC
Vento 5 kt da est

TAF: LFJL 161700Z 1618/1718 VRB03KT CAVOK BECMG 1707/1710 09005KT

Osservazioni e previsioni meteorologiche di più di 4000 aeroporti (messaggi METAR e TAF).

Le stazioni disponibili sono rappresentate dai dischi gialli e rossi sulla carta.

Puntare il mouse per vedere il nome della stazione.

Clicca sopra per visualizzare le osservazioni e previsioni meteorologiche.

Per cambiare la mappa : fare clic sui pulsanti verdi con una croce nera per ingrandire, il pulsante verde con un trattino per diminuire, o sulla freccia verde per le mappe adiacenti.


METAR-TAF: